sensor_id;sensor_type;location;lat;lon;timestamp;P1;durP1;ratioP1;P2;durP2;ratioP2
15858;SDS011;8029;52.202;7.308;2023-02-03T00:01:03;7.93;;;4.85;;
15858;SDS011;8029;52.202;7.308;2023-02-03T00:03:29;6.82;;;3.85;;
15858;SDS011;8029;52.202;7.308;2023-02-03T00:05:55;8.90;;;5.35;;
15858;SDS011;8029;52.202;7.308;2023-02-03T00:08:21;8.02;;;4.93;;
15858;SDS011;8029;52.202;7.308;2023-02-03T00:10:48;5.30;;;4.75;;
15858;SDS011;8029;52.202;7.308;2023-02-03T00:13:15;7.40;;;4.13;;
15858;SDS011;8029;52.202;7.308;2023-02-03T00:15:41;6.13;;;3.88;;
15858;SDS011;8029;52.202;7.308;2023-02-03T00:18:07;9.52;;;4.30;;
15858;SDS011;8029;52.202;7.308;2023-02-03T00:20:32;8.27;;;4.20;;
15858;SDS011;8029;52.202;7.308;2023-02-03T00:23:05;5.65;;;3.90;;
15858;SDS011;8029;52.202;7.308;2023-02-03T00:25:31;5.57;;;3.85;;
15858;SDS011;8029;52.202;7.308;2023-02-03T00:27:58;5.20;;;4.60;;
15858;SDS011;8029;52.202;7.308;2023-02-03T00:30:23;4.13;;;3.58;;
15858;SDS011;8029;52.202;7.308;2023-02-03T00:32:49;4.53;;;4.05;;
15858;SDS011;8029;52.202;7.308;2023-02-03T00:35:15;7.28;;;3.88;;
15858;SDS011;8029;52.202;7.308;2023-02-03T00:37:41;5.70;;;3.88;;
15858;SDS011;8029;52.202;7.308;2023-02-03T00:40:07;4.32;;;3.80;;
15858;SDS011;8029;52.202;7.308;2023-02-03T00:42:34;8.10;;;3.97;;
15858;SDS011;8029;52.202;7.308;2023-02-03T00:45:00;5.15;;;3.60;;
15858;SDS011;8029;52.202;7.308;2023-02-03T00:47:26;4.60;;;3.58;;
15858;SDS011;8029;52.202;7.308;2023-02-03T00:49:52;7.97;;;4.88;;
15858;SDS011;8029;52.202;7.308;2023-02-03T00:52:18;5.15;;;3.63;;
15858;SDS011;8029;52.202;7.308;2023-02-03T00:54:44;6.10;;;3.53;;
15858;SDS011;8029;52.202;7.308;2023-02-03T00:57:10;12.05;;;3.97;;
15858;SDS011;8029;52.202;7.308;2023-02-03T00:59:37;4.50;;;3.03;;
15858;SDS011;8029;52.202;7.308;2023-02-03T01:02:03;11.32;;;4.22;;
15858;SDS011;8029;52.202;7.308;2023-02-03T01:04:29;5.20;;;3.15;;
15858;SDS011;8029;52.202;7.308;2023-02-03T01:06:55;5.00;;;4.05;;
15858;SDS011;8029;52.202;7.308;2023-02-03T01:09:23;6.45;;;4.45;;
15858;SDS011;8029;52.202;7.308;2023-02-03T01:11:49;11.38;;;4.22;;
15858;SDS011;8029;52.202;7.308;2023-02-03T01:14:15;18.88;;;4.30;;
15858;SDS011;8029;52.202;7.308;2023-02-03T01:16:42;6.60;;;4.05;;
15858;SDS011;8029;52.202;7.308;2023-02-03T01:19:08;4.68;;;3.70;;
15858;SDS011;8029;52.202;7.308;2023-02-03T01:21:34;12.82;;;5.05;;
15858;SDS011;8029;52.202;7.308;2023-02-03T01:24:00;4.55;;;3.45;;
15858;SDS011;8029;52.202;7.308;2023-02-03T01:26:27;4.07;;;3.67;;
15858;SDS011;8029;52.202;7.308;2023-02-03T01:28:54;6.35;;;4.00;;
15858;SDS011;8029;52.202;7.308;2023-02-03T01:31:31;9.80;;;4.18;;
15858;SDS011;8029;52.202;7.308;2023-02-03T01:34:01;4.30;;;3.08;;
15858;SDS011;8029;52.202;7.308;2023-02-03T01:36:28;9.70;;;3.83;;
15858;SDS011;8029;52.202;7.308;2023-02-03T01:38:54;5.47;;;3.35;;
15858;SDS011;8029;52.202;7.308;2023-02-03T01:41:22;4.78;;;3.20;;
15858;SDS011;8029;52.202;7.308;2023-02-03T01:43:49;5.68;;;4.13;;
15858;SDS011;8029;52.202;7.308;2023-02-03T01:49:03;4.28;;;3.15;;
15858;SDS011;8029;52.202;7.308;2023-02-03T01:51:30;3.92;;;3.08;;
15858;SDS011;8029;52.202;7.308;2023-02-03T01:53:56;6.30;;;3.95;;
15858;SDS011;8029;52.202;7.308;2023-02-03T01:56:23;8.50;;;3.83;;
15858;SDS011;8029;52.202;7.308;2023-02-03T01:58:52;11.27;;;4.35;;
15858;SDS011;8029;52.202;7.308;2023-02-03T02:01:18;8.05;;;4.07;;
15858;SDS011;8029;52.202;7.308;2023-02-03T02:03:49;8.63;;;4.65;;
15858;SDS011;8029;52.202;7.308;2023-02-03T02:06:16;5.60;;;3.75;;
15858;SDS011;8029;52.202;7.308;2023-02-03T02:08:43;3.28;;;2.92;;
15858;SDS011;8029;52.202;7.308;2023-02-03T02:11:10;5.13;;;3.47;;
15858;SDS011;8029;52.202;7.308;2023-02-03T02:13:36;4.55;;;3.40;;
15858;SDS011;8029;52.202;7.308;2023-02-03T02:21:20;5.80;;;2.58;;
15858;SDS011;8029;52.202;7.308;2023-02-03T02:23:59;9.00;;;4.00;;
15858;SDS011;8029;52.202;7.308;2023-02-03T02:34:14;5.45;;;3.83;;
15858;SDS011;8029;52.202;7.308;2023-02-03T02:36:51;6.25;;;3.55;;
15858;SDS011;8029;52.202;7.308;2023-02-03T02:41:48;10.23;;;3.65;;
15858;SDS011;8029;52.202;7.308;2023-02-03T02:44:24;7.55;;;3.25;;
15858;SDS011;8029;52.202;7.308;2023-02-03T02:46:57;16.05;;;4.20;;
15858;SDS011;8029;52.202;7.308;2023-02-03T02:49:39;6.32;;;2.95;;
15858;SDS011;8029;52.202;7.308;2023-02-03T02:52:07;2.67;;;2.47;;
15858;SDS011;8029;52.202;7.308;2023-02-03T02:54:36;7.88;;;3.85;;
15858;SDS011;8029;52.202;7.308;2023-02-03T02:57:02;4.75;;;2.65;;
15858;SDS011;8029;52.202;7.308;2023-02-03T02:59:29;7.38;;;2.90;;
15858;SDS011;8029;52.202;7.308;2023-02-03T03:01:56;6.22;;;2.92;;
15858;SDS011;8029;52.202;7.308;2023-02-03T03:04:24;3.38;;;2.72;;
15858;SDS011;8029;52.202;7.308;2023-02-03T03:06:55;5.07;;;3.25;;
15858;SDS011;8029;52.202;7.308;2023-02-03T03:09:24;6.20;;;2.63;;
15858;SDS011;8029;52.202;7.308;2023-02-03T03:11:55;4.53;;;2.50;;
15858;SDS011;8029;52.202;7.308;2023-02-03T03:14:23;4.55;;;2.58;;
15858;SDS011;8029;52.202;7.308;2023-02-03T03:16:52;4.95;;;2.92;;
15858;SDS011;8029;52.202;7.308;2023-02-03T03:19:20;3.35;;;2.58;;
15858;SDS011;8029;52.202;7.308;2023-02-03T03:21:49;3.97;;;3.33;;
15858;SDS011;8029;52.202;7.308;2023-02-03T03:24:19;11.27;;;3.85;;
15858;SDS011;8029;52.202;7.308;2023-02-03T03:29:21;5.60;;;2.75;;
15858;SDS011;8029;52.202;7.308;2023-02-03T03:31:51;6.07;;;2.90;;
15858;SDS011;8029;52.202;7.308;2023-02-03T03:34:17;3.38;;;2.25;;
15858;SDS011;8029;52.202;7.308;2023-02-03T03:36:53;3.70;;;2.45;;
15858;SDS011;8029;52.202;7.308;2023-02-03T03:41:58;3.17;;;2.38;;
15858;SDS011;8029;52.202;7.308;2023-02-03T03:44:27;4.75;;;2.58;;
15858;SDS011;8029;52.202;7.308;2023-02-03T03:49:25;4.95;;;2.67;;
15858;SDS011;8029;52.202;7.308;2023-02-03T03:51:57;5.25;;;2.47;;
15858;SDS011;8029;52.202;7.308;2023-02-03T03:54:24;7.90;;;2.65;;
15858;SDS011;8029;52.202;7.308;2023-02-03T03:59:33;3.58;;;2.50;;
15858;SDS011;8029;52.202;7.308;2023-02-03T04:02:00;3.20;;;1.90;;
15858;SDS011;8029;52.202;7.308;2023-02-03T04:04:28;3.25;;;2.35;;
15858;SDS011;8029;52.202;7.308;2023-02-03T04:06:55;3.72;;;1.92;;
15858;SDS011;8029;52.202;7.308;2023-02-03T04:09:21;9.73;;;3.55;;
15858;SDS011;8029;52.202;7.308;2023-02-03T04:11:48;6.55;;;2.45;;
15858;SDS011;8029;52.202;7.308;2023-02-03T04:14:26;5.15;;;1.73;;
15858;SDS011;8029;52.202;7.308;2023-02-03T04:16:54;3.00;;;1.88;;
15858;SDS011;8029;52.202;7.308;2023-02-03T04:19:20;3.00;;;1.77;;
15858;SDS011;8029;52.202;7.308;2023-02-03T04:21:46;8.00;;;2.42;;
15858;SDS011;8029;52.202;7.308;2023-02-03T04:24:12;8.18;;;2.97;;
15858;SDS011;8029;52.202;7.308;2023-02-03T04:26:39;4.78;;;2.65;;
15858;SDS011;8029;52.202;7.308;2023-02-03T04:29:05;2.30;;;1.58;;
15858;SDS011;8029;52.202;7.308;2023-02-03T04:31:31;4.30;;;2.35;;
15858;SDS011;8029;52.202;7.308;2023-02-03T04:33:57;4.00;;;1.85;;
15858;SDS011;8029;52.202;7.308;2023-02-03T04:36:23;3.45;;;1.90;;
15858;SDS011;8029;52.202;7.308;2023-02-03T04:38:49;5.90;;;2.10;;
15858;SDS011;8029;52.202;7.308;2023-02-03T04:41:15;1.95;;;1.75;;
15858;SDS011;8029;52.202;7.308;2023-02-03T04:43:41;16.63;;;2.05;;
15858;SDS011;8029;52.202;7.308;2023-02-03T04:46:07;4.28;;;2.30;;
15858;SDS011;8029;52.202;7.308;2023-02-03T04:48:34;7.13;;;2.85;;
15858;SDS011;8029;52.202;7.308;2023-02-03T04:51:00;5.45;;;1.92;;
15858;SDS011;8029;52.202;7.308;2023-02-03T04:53:27;5.88;;;2.03;;
15858;SDS011;8029;52.202;7.308;2023-02-03T04:55:53;3.35;;;1.73;;
15858;SDS011;8029;52.202;7.308;2023-02-03T04:58:19;2.10;;;1.85;;
15858;SDS011;8029;52.202;7.308;2023-02-03T05:00:45;1.95;;;1.60;;
15858;SDS011;8029;52.202;7.308;2023-02-03T05:03:11;5.35;;;2.03;;
15858;SDS011;8029;52.202;7.308;2023-02-03T05:05:37;4.45;;;2.58;;
15858;SDS011;8029;52.202;7.308;2023-02-03T05:08:03;1.92;;;1.67;;
15858;SDS011;8029;52.202;7.308;2023-02-03T05:10:29;3.53;;;2.55;;
15858;SDS011;8029;52.202;7.308;2023-02-03T05:12:55;3.20;;;2.08;;
15858;SDS011;8029;52.202;7.308;2023-02-03T05:15:21;2.63;;;1.77;;
15858;SDS011;8029;52.202;7.308;2023-02-03T05:17:47;1.55;;;1.45;;
15858;SDS011;8029;52.202;7.308;2023-02-03T05:20:13;5.03;;;2.15;;
15858;SDS011;8029;52.202;7.308;2023-02-03T05:22:39;5.57;;;2.28;;
15858;SDS011;8029;52.202;7.308;2023-02-03T05:25:05;3.70;;;2.22;;
15858;SDS011;8029;52.202;7.308;2023-02-03T05:27:31;3.35;;;2.17;;
15858;SDS011;8029;52.202;7.308;2023-02-03T05:29:57;3.10;;;1.85;;
15858;SDS011;8029;52.202;7.308;2023-02-03T05:32:23;3.08;;;2.78;;
15858;SDS011;8029;52.202;7.308;2023-02-03T05:34:49;3.83;;;2.28;;
15858;SDS011;8029;52.202;7.308;2023-02-03T05:37:15;2.25;;;1.58;;
15858;SDS011;8029;52.202;7.308;2023-02-03T05:39:42;2.30;;;2.10;;
15858;SDS011;8029;52.202;7.308;2023-02-03T05:42:08;6.10;;;2.55;;
15858;SDS011;8029;52.202;7.308;2023-02-03T05:44:34;7.38;;;2.67;;
15858;SDS011;8029;52.202;7.308;2023-02-03T05:47:01;5.40;;;2.20;;
15858;SDS011;8029;52.202;7.308;2023-02-03T05:49:28;4.25;;;2.13;;
15858;SDS011;8029;52.202;7.308;2023-02-03T05:51:54;2.72;;;2.15;;
15858;SDS011;8029;52.202;7.308;2023-02-03T05:54:21;1.67;;;1.55;;
15858;SDS011;8029;52.202;7.308;2023-02-03T05:56:47;3.25;;;1.77;;
15858;SDS011;8029;52.202;7.308;2023-02-03T05:59:13;6.63;;;2.75;;
15858;SDS011;8029;52.202;7.308;2023-02-03T06:01:39;8.77;;;2.97;;
15858;SDS011;8029;52.202;7.308;2023-02-03T06:04:06;2.95;;;2.00;;
15858;SDS011;8029;52.202;7.308;2023-02-03T06:06:41;4.53;;;2.38;;
15858;SDS011;8029;52.202;7.308;2023-02-03T06:09:07;2.58;;;1.95;;
15858;SDS011;8029;52.202;7.308;2023-02-03T06:11:33;2.10;;;1.90;;
15858;SDS011;8029;52.202;7.308;2023-02-03T06:14:00;2.78;;;1.73;;
15858;SDS011;8029;52.202;7.308;2023-02-03T06:16:27;2.85;;;1.90;;
15858;SDS011;8029;52.202;7.308;2023-02-03T06:18:53;2.05;;;1.67;;
15858;SDS011;8029;52.202;7.308;2023-02-03T06:21:24;3.58;;;2.05;;
15858;SDS011;8029;52.202;7.308;2023-02-03T06:23:51;5.57;;;2.45;;
15858;SDS011;8029;52.202;7.308;2023-02-03T06:26:17;5.68;;;2.30;;
15858;SDS011;8029;52.202;7.308;2023-02-03T06:28:43;1.60;;;1.50;;
15858;SDS011;8029;52.202;7.308;2023-02-03T06:31:09;3.85;;;1.75;;
15858;SDS011;8029;52.202;7.308;2023-02-03T06:33:35;3.80;;;2.40;;
15858;SDS011;8029;52.202;7.308;2023-02-03T06:36:01;25.08;;;2.78;;
15858;SDS011;8029;52.202;7.308;2023-02-03T06:38:27;3.58;;;2.08;;
15858;SDS011;8029;52.202;7.308;2023-02-03T06:40:53;5.07;;;2.70;;
15858;SDS011;8029;52.202;7.308;2023-02-03T06:43:19;2.55;;;2.00;;
15858;SDS011;8029;52.202;7.308;2023-02-03T06:45:47;1.88;;;1.52;;
15858;SDS011;8029;52.202;7.308;2023-02-03T06:48:13;2.90;;;2.03;;
15858;SDS011;8029;52.202;7.308;2023-02-03T06:50:39;3.10;;;1.90;;
15858;SDS011;8029;52.202;7.308;2023-02-03T06:53:05;2.30;;;2.00;;
15858;SDS011;8029;52.202;7.308;2023-02-03T06:55:32;3.92;;;2.42;;
15858;SDS011;8029;52.202;7.308;2023-02-03T06:57:58;2.58;;;1.73;;
15858;SDS011;8029;52.202;7.308;2023-02-03T07:00:24;2.88;;;2.10;;
15858;SDS011;8029;52.202;7.308;2023-02-03T07:02:54;4.85;;;2.97;;
15858;SDS011;8029;52.202;7.308;2023-02-03T07:05:20;2.20;;;1.92;;
15858;SDS011;8029;52.202;7.308;2023-02-03T07:10:22;4.78;;;2.00;;
15858;SDS011;8029;52.202;7.308;2023-02-03T07:12:48;4.28;;;2.25;;
15858;SDS011;8029;52.202;7.308;2023-02-03T07:15:16;2.80;;;1.63;;
15858;SDS011;8029;52.202;7.308;2023-02-03T07:17:43;4.00;;;2.22;;
15858;SDS011;8029;52.202;7.308;2023-02-03T07:23:29;1.98;;;1.70;;
15858;SDS011;8029;52.202;7.308;2023-02-03T07:28:49;2.35;;;1.58;;
15858;SDS011;8029;52.202;7.308;2023-02-03T07:31:18;1.83;;;1.58;;
15858;SDS011;8029;52.202;7.308;2023-02-03T07:33:44;1.67;;;1.38;;
15858;SDS011;8029;52.202;7.308;2023-02-03T07:36:11;4.05;;;1.95;;
15858;SDS011;8029;52.202;7.308;2023-02-03T07:38:37;1.73;;;1.40;;
15858;SDS011;8029;52.202;7.308;2023-02-03T07:41:05;2.10;;;1.70;;
15858;SDS011;8029;52.202;7.308;2023-02-03T07:43:48;2.22;;;1.65;;
15858;SDS011;8029;52.202;7.308;2023-02-03T07:46:22;3.45;;;2.00;;
15858;SDS011;8029;52.202;7.308;2023-02-03T07:49:00;2.10;;;1.30;;
15858;SDS011;8029;52.202;7.308;2023-02-03T07:51:42;2.22;;;1.55;;
15858;SDS011;8029;52.202;7.308;2023-02-03T07:54:30;4.80;;;1.92;;
15858;SDS011;8029;52.202;7.308;2023-02-03T07:57:02;2.97;;;2.20;;
15858;SDS011;8029;52.202;7.308;2023-02-03T08:02:22;3.33;;;1.80;;
15858;SDS011;8029;52.202;7.308;2023-02-03T08:04:48;6.03;;;2.17;;
15858;SDS011;8029;52.202;7.308;2023-02-03T08:12:52;2.28;;;1.80;;
15858;SDS011;8029;52.202;7.308;2023-02-03T08:15:24;4.40;;;2.42;;
15858;SDS011;8029;52.202;7.308;2023-02-03T08:17:50;2.92;;;1.48;;
15858;SDS011;8029;52.202;7.308;2023-02-03T08:20:16;2.35;;;1.67;;
15858;SDS011;8029;52.202;7.308;2023-02-03T08:22:43;2.47;;;1.55;;
15858;SDS011;8029;52.202;7.308;2023-02-03T08:25:12;3.40;;;1.52;;
15858;SDS011;8029;52.202;7.308;2023-02-03T08:27:39;5.95;;;2.55;;
15858;SDS011;8029;52.202;7.308;2023-02-03T08:30:18;3.38;;;1.35;;
15858;SDS011;8029;52.202;7.308;2023-02-03T08:32:45;6.13;;;2.55;;
15858;SDS011;8029;52.202;7.308;2023-02-03T08:35:15;7.95;;;2.28;;
15858;SDS011;8029;52.202;7.308;2023-02-03T08:37:45;2.75;;;1.70;;
15858;SDS011;8029;52.202;7.308;2023-02-03T08:40:12;2.83;;;1.75;;
15858;SDS011;8029;52.202;7.308;2023-02-03T08:42:48;6.25;;;2.22;;
15858;SDS011;8029;52.202;7.308;2023-02-03T08:45:15;6.93;;;2.22;;
15858;SDS011;8029;52.202;7.308;2023-02-03T08:47:41;1.45;;;1.20;;
15858;SDS011;8029;52.202;7.308;2023-02-03T08:50:08;2.85;;;1.88;;
15858;SDS011;8029;52.202;7.308;2023-02-03T08:52:34;3.22;;;2.10;;
15858;SDS011;8029;52.202;7.308;2023-02-03T08:55:01;6.70;;;2.05;;
15858;SDS011;8029;52.202;7.308;2023-02-03T08:57:30;1.88;;;1.70;;
15858;SDS011;8029;52.202;7.308;2023-02-03T09:00:04;2.42;;;1.77;;
15858;SDS011;8029;52.202;7.308;2023-02-03T09:02:31;3.67;;;2.53;;
15858;SDS011;8029;52.202;7.308;2023-02-03T09:04:57;2.80;;;2.10;;
15858;SDS011;8029;52.202;7.308;2023-02-03T09:07:24;4.03;;;2.33;;
15858;SDS011;8029;52.202;7.308;2023-02-03T09:09:50;3.33;;;2.28;;
15858;SDS011;8029;52.202;7.308;2023-02-03T09:12:16;2.08;;;1.50;;
15858;SDS011;8029;52.202;7.308;2023-02-03T09:14:43;2.45;;;1.83;;
15858;SDS011;8029;52.202;7.308;2023-02-03T09:17:09;1.67;;;1.40;;
15858;SDS011;8029;52.202;7.308;2023-02-03T09:19:35;2.58;;;1.90;;
15858;SDS011;8029;52.202;7.308;2023-02-03T09:22:01;2.90;;;1.52;;
15858;SDS011;8029;52.202;7.308;2023-02-03T09:24:28;8.52;;;2.45;;
15858;SDS011;8029;52.202;7.308;2023-02-03T09:26:54;4.00;;;2.20;;
15858;SDS011;8029;52.202;7.308;2023-02-03T09:29:21;2.75;;;1.55;;
15858;SDS011;8029;52.202;7.308;2023-02-03T09:31:50;2.42;;;1.23;;
15858;SDS011;8029;52.202;7.308;2023-02-03T09:34:17;3.55;;;1.67;;
15858;SDS011;8029;52.202;7.308;2023-02-03T09:36:45;8.70;;;2.33;;
15858;SDS011;8029;52.202;7.308;2023-02-03T09:39:11;13.10;;;3.00;;
15858;SDS011;8029;52.202;7.308;2023-02-03T09:46:43;5.03;;;1.70;;
15858;SDS011;8029;52.202;7.308;2023-02-03T09:49:13;3.08;;;1.70;;
15858;SDS011;8029;52.202;7.308;2023-02-03T09:51:46;2.20;;;1.30;;
15858;SDS011;8029;52.202;7.308;2023-02-03T09:54:21;1.33;;;1.20;;
15858;SDS011;8029;52.202;7.308;2023-02-03T09:56:48;3.63;;;1.73;;
15858;SDS011;8029;52.202;7.308;2023-02-03T09:59:16;2.17;;;1.45;;
15858;SDS011;8029;52.202;7.308;2023-02-03T10:01:56;3.47;;;2.50;;
15858;SDS011;8029;52.202;7.308;2023-02-03T10:04:32;9.57;;;3.58;;
15858;SDS011;8029;52.202;7.308;2023-02-03T10:07:20;15.80;;;2.40;;
15858;SDS011;8029;52.202;7.308;2023-02-03T10:17:25;3.05;;;2.10;;
15858;SDS011;8029;52.202;7.308;2023-02-03T10:19:56;2.25;;;1.70;;
15858;SDS011;8029;52.202;7.308;2023-02-03T10:22:25;4.50;;;2.08;;
15858;SDS011;8029;52.202;7.308;2023-02-03T10:27:20;7.20;;;3.42;;
15858;SDS011;8029;52.202;7.308;2023-02-03T10:29:53;3.45;;;2.63;;
15858;SDS011;8029;52.202;7.308;2023-02-03T10:32:19;5.28;;;3.13;;
15858;SDS011;8029;52.202;7.308;2023-02-03T10:34:46;5.45;;;2.72;;
15858;SDS011;8029;52.202;7.308;2023-02-03T10:37:29;3.38;;;2.03;;
15858;SDS011;8029;52.202;7.308;2023-02-03T10:39:56;7.68;;;2.53;;
15858;SDS011;8029;52.202;7.308;2023-02-03T10:42:24;4.32;;;2.45;;
15858;SDS011;8029;52.202;7.308;2023-02-03T10:44:55;4.10;;;3.10;;
15858;SDS011;8029;52.202;7.308;2023-02-03T10:49:49;3.22;;;2.10;;
15858;SDS011;8029;52.202;7.308;2023-02-03T10:52:26;10.57;;;4.43;;
15858;SDS011;8029;52.202;7.308;2023-02-03T10:54:52;2.72;;;1.77;;
15858;SDS011;8029;52.202;7.308;2023-02-03T10:57:18;3.50;;;1.90;;
15858;SDS011;8029;52.202;7.308;2023-02-03T10:59:45;2.33;;;1.48;;
15858;SDS011;8029;52.202;7.308;2023-02-03T11:02:21;3.90;;;2.40;;
15858;SDS011;8029;52.202;7.308;2023-02-03T11:04:54;2.40;;;2.00;;
15858;SDS011;8029;52.202;7.308;2023-02-03T11:07:33;5.63;;;2.45;;
15858;SDS011;8029;52.202;7.308;2023-02-03T11:09:59;4.05;;;2.65;;
15858;SDS011;8029;52.202;7.308;2023-02-03T11:12:25;2.28;;;2.08;;
15858;SDS011;8029;52.202;7.308;2023-02-03T11:14:52;3.60;;;2.25;;
15858;SDS011;8029;52.202;7.308;2023-02-03T11:17:22;4.43;;;2.40;;
15858;SDS011;8029;52.202;7.308;2023-02-03T11:19:50;4.20;;;1.75;;
15858;SDS011;8029;52.202;7.308;2023-02-03T11:22:27;3.10;;;2.05;;
15858;SDS011;8029;52.202;7.308;2023-02-03T11:24:54;2.75;;;1.70;;
15858;SDS011;8029;52.202;7.308;2023-02-03T11:27:20;2.65;;;1.60;;
15858;SDS011;8029;52.202;7.308;2023-02-03T11:29:49;3.55;;;2.20;;
15858;SDS011;8029;52.202;7.308;2023-02-03T11:34:46;5.82;;;3.08;;
15858;SDS011;8029;52.202;7.308;2023-02-03T11:37:24;2.65;;;1.90;;
15858;SDS011;8029;52.202;7.308;2023-02-03T11:42:32;7.07;;;2.63;;
15858;SDS011;8029;52.202;7.308;2023-02-03T11:47:46;3.17;;;1.85;;
15858;SDS011;8029;52.202;7.308;2023-02-03T11:52:44;3.97;;;2.28;;
15858;SDS011;8029;52.202;7.308;2023-02-03T11:55:20;2.50;;;2.00;;
15858;SDS011;8029;52.202;7.308;2023-02-03T12:11:19;2.55;;;1.55;;
15858;SDS011;8029;52.202;7.308;2023-02-03T12:21:37;3.30;;;2.28;;
15858;SDS011;8029;52.202;7.308;2023-02-03T12:24:08;4.47;;;2.05;;
15858;SDS011;8029;52.202;7.308;2023-02-03T12:26:53;25.80;;;3.65;;
15858;SDS011;8029;52.202;7.308;2023-02-03T12:29:23;5.15;;;2.25;;
15858;SDS011;8029;52.202;7.308;2023-02-03T12:34:24;10.60;;;3.55;;
15858;SDS011;8029;52.202;7.308;2023-02-03T12:44:58;2.42;;;1.98;;
15858;SDS011;8029;52.202;7.308;2023-02-03T12:52:56;3.33;;;1.77;;
15858;SDS011;8029;52.202;7.308;2023-02-03T13:00:33;8.68;;;2.97;;
15858;SDS011;8029;52.202;7.308;2023-02-03T13:08:12;7.95;;;3.38;;
15858;SDS011;8029;52.202;7.308;2023-02-03T13:10:51;18.25;;;4.10;;
15858;SDS011;8029;52.202;7.308;2023-02-03T13:13:34;6.45;;;3.28;;
15858;SDS011;8029;52.202;7.308;2023-02-03T13:16:05;6.88;;;3.13;;
15858;SDS011;8029;52.202;7.308;2023-02-03T13:18:36;6.18;;;3.03;;
15858;SDS011;8029;52.202;7.308;2023-02-03T13:21:02;5.10;;;2.60;;
15858;SDS011;8029;52.202;7.308;2023-02-03T13:23:28;16.08;;;3.17;;
15858;SDS011;8029;52.202;7.308;2023-02-03T13:26:08;8.05;;;3.50;;
15858;SDS011;8029;52.202;7.308;2023-02-03T13:28:46;8.98;;;4.30;;
15858;SDS011;8029;52.202;7.308;2023-02-03T13:39:03;16.65;;;4.03;;
15858;SDS011;8029;52.202;7.308;2023-02-03T13:43:59;7.60;;;2.97;;
15858;SDS011;8029;52.202;7.308;2023-02-03T13:46:30;12.50;;;3.92;;
15858;SDS011;8029;52.202;7.308;2023-02-03T13:48:57;5.65;;;3.15;;
15858;SDS011;8029;52.202;7.308;2023-02-03T13:51:34;4.57;;;2.40;;
15858;SDS011;8029;52.202;7.308;2023-02-03T13:54:06;19.58;;;4.80;;
15858;SDS011;8029;52.202;7.308;2023-02-03T13:56:33;9.38;;;2.70;;
15858;SDS011;8029;52.202;7.308;2023-02-03T13:59:01;12.02;;;3.97;;
15858;SDS011;8029;52.202;7.308;2023-02-03T14:01:32;7.97;;;3.80;;
15858;SDS011;8029;52.202;7.308;2023-02-03T14:03:59;6.45;;;2.83;;
15858;SDS011;8029;52.202;7.308;2023-02-03T14:07:00;9.98;;;2.97;;
15858;SDS011;8029;52.202;7.308;2023-02-03T14:09:19;5.38;;;2.75;;
15858;SDS011;8029;52.202;7.308;2023-02-03T14:11:47;15.15;;;4.28;;
15858;SDS011;8029;52.202;7.308;2023-02-03T14:16:43;4.90;;;2.83;;
15858;SDS011;8029;52.202;7.308;2023-02-03T14:19:12;4.68;;;2.78;;
15858;SDS011;8029;52.202;7.308;2023-02-03T14:21:51;5.60;;;2.78;;
15858;SDS011;8029;52.202;7.308;2023-02-03T14:24:19;5.65;;;3.40;;
15858;SDS011;8029;52.202;7.308;2023-02-03T14:26:47;12.63;;;3.92;;
15858;SDS011;8029;52.202;7.308;2023-02-03T14:29:23;19.65;;;3.78;;
15858;SDS011;8029;52.202;7.308;2023-02-03T14:31:53;5.50;;;2.50;;
15858;SDS011;8029;52.202;7.308;2023-02-03T14:50:08;8.85;;;3.65;;
15858;SDS011;8029;52.202;7.308;2023-02-03T14:52:47;6.07;;;3.67;;
15858;SDS011;8029;52.202;7.308;2023-02-03T14:57:54;5.97;;;2.78;;
15858;SDS011;8029;52.202;7.308;2023-02-03T15:00:25;5.75;;;3.38;;
15858;SDS011;8029;52.202;7.308;2023-02-03T15:05:47;6.60;;;3.50;;
15858;SDS011;8029;52.202;7.308;2023-02-03T15:11:02;9.65;;;4.00;;
15858;SDS011;8029;52.202;7.308;2023-02-03T15:13:39;4.18;;;2.60;;
15858;SDS011;8029;52.202;7.308;2023-02-03T15:16:10;11.30;;;3.58;;
15858;SDS011;8029;52.202;7.308;2023-02-03T15:18:38;7.20;;;2.63;;
15858;SDS011;8029;52.202;7.308;2023-02-03T15:21:05;5.88;;;2.28;;
15858;SDS011;8029;52.202;7.308;2023-02-03T15:23:41;6.63;;;3.00;;
15858;SDS011;8029;52.202;7.308;2023-02-03T15:26:12;11.80;;;4.03;;
15858;SDS011;8029;52.202;7.308;2023-02-03T15:28:39;15.25;;;3.15;;
15858;SDS011;8029;52.202;7.308;2023-02-03T15:33:59;7.55;;;3.38;;
15858;SDS011;8029;52.202;7.308;2023-02-03T15:36:26;5.30;;;3.30;;
15858;SDS011;8029;52.202;7.308;2023-02-03T15:41:33;8.80;;;3.20;;
15858;SDS011;8029;52.202;7.308;2023-02-03T15:44:01;7.88;;;2.47;;
15858;SDS011;8029;52.202;7.308;2023-02-03T15:46:41;8.48;;;3.65;;
15858;SDS011;8029;52.202;7.308;2023-02-03T15:51:45;9.63;;;3.50;;
15858;SDS011;8029;52.202;7.308;2023-02-03T15:56:39;5.45;;;3.35;;
15858;SDS011;8029;52.202;7.308;2023-02-03T15:59:52;11.45;;;3.80;;
15858;SDS011;8029;52.202;7.308;2023-02-03T16:01:52;7.60;;;3.63;;
15858;SDS011;8029;52.202;7.308;2023-02-03T16:04:18;7.60;;;3.00;;
15858;SDS011;8029;52.202;7.308;2023-02-03T16:06:47;15.55;;;4.78;;
15858;SDS011;8029;52.202;7.308;2023-02-03T16:09:24;18.42;;;4.07;;
15858;SDS011;8029;52.202;7.308;2023-02-03T16:12:01;12.35;;;5.63;;
15858;SDS011;8029;52.202;7.308;2023-02-03T16:14:32;5.47;;;2.75;;
15858;SDS011;8029;52.202;7.308;2023-02-03T16:16:58;3.42;;;2.38;;
15858;SDS011;8029;52.202;7.308;2023-02-03T16:19:24;8.65;;;3.35;;
15858;SDS011;8029;52.202;7.308;2023-02-03T16:21:56;10.23;;;3.70;;
15858;SDS011;8029;52.202;7.308;2023-02-03T16:24:35;12.50;;;5.30;;
15858;SDS011;8029;52.202;7.308;2023-02-03T16:29:49;6.93;;;3.28;;
15858;SDS011;8029;52.202;7.308;2023-02-03T16:32:35;26.38;;;3.90;;
15858;SDS011;8029;52.202;7.308;2023-02-03T16:35:23;6.90;;;2.90;;
15858;SDS011;8029;52.202;7.308;2023-02-03T16:38:14;10.93;;;4.13;;
15858;SDS011;8029;52.202;7.308;2023-02-03T16:41:01;13.40;;;3.65;;
15858;SDS011;8029;52.202;7.308;2023-02-03T16:43:47;5.82;;;3.55;;
15858;SDS011;8029;52.202;7.308;2023-02-03T16:46:32;9.15;;;2.97;;
15858;SDS011;8029;52.202;7.308;2023-02-03T16:49:16;6.95;;;3.13;;
15858;SDS011;8029;52.202;7.308;2023-02-03T16:52:01;6.93;;;3.67;;
15858;SDS011;8029;52.202;7.308;2023-02-03T16:54:29;7.63;;;3.30;;
15858;SDS011;8029;52.202;7.308;2023-02-03T16:56:55;4.43;;;2.50;;
15858;SDS011;8029;52.202;7.308;2023-02-03T16:59:21;13.30;;;3.47;;
15858;SDS011;8029;52.202;7.308;2023-02-03T17:01:48;8.88;;;3.67;;
15858;SDS011;8029;52.202;7.308;2023-02-03T17:04:14;6.93;;;2.80;;
15858;SDS011;8029;52.202;7.308;2023-02-03T17:06:41;5.97;;;2.72;;
15858;SDS011;8029;52.202;7.308;2023-02-03T17:09:08;12.38;;;3.78;;
15858;SDS011;8029;52.202;7.308;2023-02-03T17:11:34;11.13;;;3.20;;
15858;SDS011;8029;52.202;7.308;2023-02-03T17:14:00;20.90;;;3.33;;
15858;SDS011;8029;52.202;7.308;2023-02-03T17:16:27;6.55;;;3.22;;
15858;SDS011;8029;52.202;7.308;2023-02-03T17:18:55;5.40;;;2.75;;
15858;SDS011;8029;52.202;7.308;2023-02-03T17:21:23;3.80;;;2.63;;
15858;SDS011;8029;52.202;7.308;2023-02-03T17:23:49;8.68;;;3.15;;
15858;SDS011;8029;52.202;7.308;2023-02-03T17:26:15;8.40;;;3.28;;
15858;SDS011;8029;52.202;7.308;2023-02-03T17:28:42;19.45;;;3.50;;
15858;SDS011;8029;52.202;7.308;2023-02-03T17:31:10;12.23;;;3.50;;
15858;SDS011;8029;52.202;7.308;2023-02-03T17:33:37;9.77;;;3.65;;
15858;SDS011;8029;52.202;7.308;2023-02-03T17:38:30;7.97;;;4.00;;
15858;SDS011;8029;52.202;7.308;2023-02-03T17:40:57;7.03;;;2.83;;
15858;SDS011;8029;52.202;7.308;2023-02-03T17:43:23;8.68;;;3.25;;
15858;SDS011;8029;52.202;7.308;2023-02-03T17:45:49;18.20;;;3.10;;
15858;SDS011;8029;52.202;7.308;2023-02-03T17:48:15;8.50;;;3.60;;
15858;SDS011;8029;52.202;7.308;2023-02-03T17:50:41;22.90;;;3.33;;
15858;SDS011;8029;52.202;7.308;2023-02-03T17:53:07;5.25;;;3.05;;
15858;SDS011;8029;52.202;7.308;2023-02-03T17:55:33;5.03;;;2.63;;
15858;SDS011;8029;52.202;7.308;2023-02-03T17:58:02;13.93;;;3.50;;
15858;SDS011;8029;52.202;7.308;2023-02-03T18:00:29;5.10;;;3.10;;
15858;SDS011;8029;52.202;7.308;2023-02-03T18:02:54;9.45;;;3.72;;
15858;SDS011;8029;52.202;7.308;2023-02-03T18:05:22;5.35;;;2.90;;